Airfield :







YOU CAN JOIN US ON...

 
LOGIN :

Register | Disclaimer

   EN    FR    IT 

 









Legend :    VFR   Marginal VFR   IFR   Intensive IFR   Very Intensive IFR
Visi :
Ceiling :
>= 8 km
>= 3000ft
5 to 8 km
1000 to 3000 ft
1500m to 5 km
500 to 1000 ft
800 to 1500m
200 to 500 ft
< 800m
< 200 ft
Symbols :   Thunderstorms  Fog  Heavy snow  Heavy precipitations  Wind > 20 kt






- Airport Elevation : 235 ft
- IATA code : CCS


SVMI - Simon Bolivar

CURRENT METAR :
  • 152100Z 02007KT 9999 BKN016 28/24 Q1013

EXPIRED METARs :
  • 152000Z 36006KT 9999 OVC013 29/25 Q1012 NOSIG
  • 151900Z 34007KT 9999 BKN013 30/26 Q1011 NOSIG

TAF TAF SVMI
Valid from the 15 at 18:00 until the 16 at 18:00 UTC


151000Z 1518/1618 09005KT 9999 FEW016 TX33/19Z TN24/08Z
BECMG 1518/1523 09005KT SCT016
FM150000 00000KT 9999 FEW016



MET'MAP, your aeronautical weather chart ! - Copyright ORBIFLY December 2007 - Disclaimer

ORBIFLY MET'MAP TEAM :

Programming & Development : Alexandra Zaïnal
Concept & Development : Baudouin d'Aumeries
Co-Development & Prog : Marc-Olivier Méhu
Technical & hardware support : Manuel Goepfert

Contact : metmap@orbifly.com




SOURCES & CREDITS :

   NOAA